sensor_id;sensor_type;location;lat;lon;timestamp;pressure;altitude;pressure_sealevel;temperature;humidity
21574;BME280;10948;48.706;9.258;2022-09-09T00:04:29;97428.44;;;15.05;100.00
21574;BME280;10948;48.706;9.258;2022-09-09T00:09:38;97427.06;;;15.52;100.00
21574;BME280;10948;48.706;9.258;2022-09-09T00:12:06;97420.97;;;15.51;100.00
21574;BME280;10948;48.706;9.258;2022-09-09T00:14:51;97419.41;;;15.19;100.00
21574;BME280;10948;48.706;9.258;2022-09-09T00:17:20;97419.84;;;15.24;100.00
21574;BME280;10948;48.706;9.258;2022-09-09T00:19:58;97411.97;;;15.44;100.00
21574;BME280;10948;48.706;9.258;2022-09-09T00:22:26;97407.13;;;15.19;100.00
21574;BME280;10948;48.706;9.258;2022-09-09T00:24:53;97398.69;;;15.16;100.00
21574;BME280;10948;48.706;9.258;2022-09-09T00:27:37;97407.41;;;14.96;100.00
21574;BME280;10948;48.706;9.258;2022-09-09T00:32:39;97401.50;;;15.24;100.00
21574;BME280;10948;48.706;9.258;2022-09-09T00:37:43;97404.91;;;15.35;100.00
21574;BME280;10948;48.706;9.258;2022-09-09T00:43:09;97401.06;;;15.39;100.00
21574;BME280;10948;48.706;9.258;2022-09-09T00:48:10;97397.91;;;15.25;100.00
21574;BME280;10948;48.706;9.258;2022-09-09T00:58:23;97417.03;;;15.16;100.00
21574;BME280;10948;48.706;9.258;2022-09-09T01:00:50;97426.06;;;15.23;100.00
21574;BME280;10948;48.706;9.258;2022-09-09T01:08:39;97418.75;;;15.47;100.00
21574;BME280;10948;48.706;9.258;2022-09-09T01:11:09;97408.78;;;15.20;100.00
21574;BME280;10948;48.706;9.258;2022-09-09T01:13:36;97406.97;;;15.21;100.00
21574;BME280;10948;48.706;9.258;2022-09-09T01:16:03;97408.53;;;15.03;100.00
21574;BME280;10948;48.706;9.258;2022-09-09T01:18:32;97410.63;;;15.29;100.00
21574;BME280;10948;48.706;9.258;2022-09-09T01:26:43;97410.31;;;15.23;100.00
21574;BME280;10948;48.706;9.258;2022-09-09T01:29:10;97413.03;;;15.32;100.00
21574;BME280;10948;48.706;9.258;2022-09-09T01:31:38;97418.44;;;15.20;100.00
21574;BME280;10948;48.706;9.258;2022-09-09T01:34:13;97422.34;;;15.05;100.00
21574;BME280;10948;48.706;9.258;2022-09-09T01:39:03;97427.78;;;14.92;100.00
21574;BME280;10948;48.706;9.258;2022-09-09T01:41:29;97422.84;;;14.99;100.00
21574;BME280;10948;48.706;9.258;2022-09-09T01:43:54;97424.41;;;15.22;100.00
21574;BME280;10948;48.706;9.258;2022-09-09T01:46:21;97421.63;;;14.82;100.00
21574;BME280;10948;48.706;9.258;2022-09-09T01:48:46;97417.72;;;14.77;100.00
21574;BME280;10948;48.706;9.258;2022-09-09T01:51:12;97404.69;;;15.07;100.00
21574;BME280;10948;48.706;9.258;2022-09-09T01:53:38;97405.69;;;14.95;100.00
21574;BME280;10948;48.706;9.258;2022-09-09T02:03:35;97419.69;;;14.84;100.00
21574;BME280;10948;48.706;9.258;2022-09-09T02:10:55;97424.28;;;14.71;100.00
21574;BME280;10948;48.706;9.258;2022-09-09T02:13:21;97427.63;;;14.73;100.00
21574;BME280;10948;48.706;9.258;2022-09-09T02:15:49;97419.88;;;14.72;100.00
21574;BME280;10948;48.706;9.258;2022-09-09T02:18:19;97422.19;;;14.86;100.00
21574;BME280;10948;48.706;9.258;2022-09-09T02:20:48;97425.28;;;14.91;100.00
21574;BME280;10948;48.706;9.258;2022-09-09T02:23:14;97418.69;;;14.76;100.00
21574;BME280;10948;48.706;9.258;2022-09-09T02:25:40;97418.72;;;14.65;100.00
21574;BME280;10948;48.706;9.258;2022-09-09T02:28:06;97415.41;;;14.63;100.00
21574;BME280;10948;48.706;9.258;2022-09-09T02:30:34;97416.91;;;14.45;100.00
21574;BME280;10948;48.706;9.258;2022-09-09T02:33:03;97415.84;;;14.68;100.00
21574;BME280;10948;48.706;9.258;2022-09-09T02:35:30;97415.69;;;14.80;100.00
21574;BME280;10948;48.706;9.258;2022-09-09T02:38:01;97419.44;;;14.67;100.00
21574;BME280;10948;48.706;9.258;2022-09-09T02:40:27;97412.72;;;14.53;100.00
21574;BME280;10948;48.706;9.258;2022-09-09T02:42:53;97413.00;;;14.39;100.00
21574;BME280;10948;48.706;9.258;2022-09-09T02:45:20;97417.16;;;14.42;100.00
21574;BME280;10948;48.706;9.258;2022-09-09T02:47:49;97416.91;;;14.45;100.00
21574;BME280;10948;48.706;9.258;2022-09-09T02:50:22;97419.03;;;14.51;100.00
21574;BME280;10948;48.706;9.258;2022-09-09T02:55:23;97422.03;;;14.67;100.00
21574;BME280;10948;48.706;9.258;2022-09-09T02:57:51;97414.47;;;14.84;100.00
21574;BME280;10948;48.706;9.258;2022-09-09T03:00:22;97422.22;;;14.23;100.00
21574;BME280;10948;48.706;9.258;2022-09-09T03:02:49;97417.59;;;14.47;100.00
21574;BME280;10948;48.706;9.258;2022-09-09T03:05:14;97425.66;;;14.12;100.00
21574;BME280;10948;48.706;9.258;2022-09-09T03:07:39;97416.47;;;14.29;100.00
21574;BME280;10948;48.706;9.258;2022-09-09T03:10:05;97416.72;;;14.26;100.00
21574;BME280;10948;48.706;9.258;2022-09-09T03:12:30;97426.00;;;14.19;100.00
21574;BME280;10948;48.706;9.258;2022-09-09T03:14:56;97420.03;;;14.28;100.00
21574;BME280;10948;48.706;9.258;2022-09-09T03:17:21;97411.34;;;14.27;100.00
21574;BME280;10948;48.706;9.258;2022-09-09T03:19:46;97419.31;;;14.26;100.00
21574;BME280;10948;48.706;9.258;2022-09-09T03:22:14;97424.50;;;14.48;100.00
21574;BME280;10948;48.706;9.258;2022-09-09T03:24:39;97435.03;;;14.26;100.00
21574;BME280;10948;48.706;9.258;2022-09-09T03:27:05;97429.41;;;14.30;100.00
21574;BME280;10948;48.706;9.258;2022-09-09T03:29:31;97428.44;;;14.42;100.00
21574;BME280;10948;48.706;9.258;2022-09-09T03:31:56;97427.63;;;14.42;100.00
21574;BME280;10948;48.706;9.258;2022-09-09T03:34:21;97432.03;;;14.30;100.00
21574;BME280;10948;48.706;9.258;2022-09-09T03:36:46;97426.44;;;14.35;100.00
21574;BME280;10948;48.706;9.258;2022-09-09T03:39:13;97429.72;;;14.48;100.00
21574;BME280;10948;48.706;9.258;2022-09-09T03:41:39;97433.25;;;14.26;100.00
21574;BME280;10948;48.706;9.258;2022-09-09T03:44:04;97429.50;;;14.51;100.00
21574;BME280;10948;48.706;9.258;2022-09-09T03:46:29;97417.84;;;14.44;100.00
21574;BME280;10948;48.706;9.258;2022-09-09T03:48:54;97417.97;;;14.74;100.00
21574;BME280;10948;48.706;9.258;2022-09-09T03:51:20;97419.56;;;14.65;100.00
21574;BME280;10948;48.706;9.258;2022-09-09T03:53:46;97415.56;;;14.50;100.00
21574;BME280;10948;48.706;9.258;2022-09-09T03:56:11;97422.03;;;14.35;100.00
21574;BME280;10948;48.706;9.258;2022-09-09T03:58:37;97421.72;;;14.29;100.00
21574;BME280;10948;48.706;9.258;2022-09-09T04:01:04;97408.94;;;14.35;100.00
21574;BME280;10948;48.706;9.258;2022-09-09T04:03:30;97408.84;;;14.15;100.00
21574;BME280;10948;48.706;9.258;2022-09-09T04:05:56;97420.72;;;14.41;100.00
21574;BME280;10948;48.706;9.258;2022-09-09T04:08:22;97424.47;;;14.59;100.00
21574;BME280;10948;48.706;9.258;2022-09-09T04:10:50;97433.56;;;14.44;100.00
21574;BME280;10948;48.706;9.258;2022-09-09T04:13:16;97428.53;;;14.52;100.00
21574;BME280;10948;48.706;9.258;2022-09-09T04:15:43;97434.25;;;14.46;100.00
21574;BME280;10948;48.706;9.258;2022-09-09T04:18:09;97437.53;;;14.70;100.00
21574;BME280;10948;48.706;9.258;2022-09-09T04:20:34;97429.69;;;14.59;100.00
21574;BME280;10948;48.706;9.258;2022-09-09T04:22:59;97421.63;;;14.51;100.00
21574;BME280;10948;48.706;9.258;2022-09-09T04:25:25;97427.16;;;14.37;100.00
21574;BME280;10948;48.706;9.258;2022-09-09T04:27:57;97437.19;;;14.21;100.00
21574;BME280;10948;48.706;9.258;2022-09-09T04:30:23;97438.97;;;14.20;100.00
21574;BME280;10948;48.706;9.258;2022-09-09T04:32:48;97430.06;;;14.23;100.00
21574;BME280;10948;48.706;9.258;2022-09-09T04:35:13;97430.78;;;14.56;100.00
21574;BME280;10948;48.706;9.258;2022-09-09T04:37:38;97432.59;;;14.56;100.00
21574;BME280;10948;48.706;9.258;2022-09-09T04:40:04;97422.09;;;14.56;100.00
21574;BME280;10948;48.706;9.258;2022-09-09T04:42:30;97425.63;;;14.66;100.00
21574;BME280;10948;48.706;9.258;2022-09-09T04:44:55;97429.09;;;14.66;100.00
21574;BME280;10948;48.706;9.258;2022-09-09T04:47:20;97432.78;;;14.64;100.00
21574;BME280;10948;48.706;9.258;2022-09-09T04:49:46;97430.88;;;14.66;100.00
21574;BME280;10948;48.706;9.258;2022-09-09T04:52:11;97419.22;;;14.59;100.00
21574;BME280;10948;48.706;9.258;2022-09-09T04:54:37;97418.56;;;14.46;100.00
21574;BME280;10948;48.706;9.258;2022-09-09T04:57:02;97423.78;;;14.77;100.00
21574;BME280;10948;48.706;9.258;2022-09-09T04:59:27;97418.47;;;14.68;100.00
21574;BME280;10948;48.706;9.258;2022-09-09T05:01:53;97424.66;;;14.67;100.00
21574;BME280;10948;48.706;9.258;2022-09-09T05:04:20;97425.63;;;14.66;100.00
21574;BME280;10948;48.706;9.258;2022-09-09T05:06:45;97425.16;;;14.61;100.00
21574;BME280;10948;48.706;9.258;2022-09-09T05:09:10;97432.78;;;14.64;100.00
21574;BME280;10948;48.706;9.258;2022-09-09T05:11:36;97437.75;;;14.67;100.00
21574;BME280;10948;48.706;9.258;2022-09-09T05:14:02;97438.91;;;14.74;100.00
21574;BME280;10948;48.706;9.258;2022-09-09T05:16:27;97442.28;;;14.76;100.00
21574;BME280;10948;48.706;9.258;2022-09-09T05:18:52;97439.50;;;14.46;100.00
21574;BME280;10948;48.706;9.258;2022-09-09T05:21:19;97438.41;;;14.80;100.00
21574;BME280;10948;48.706;9.258;2022-09-09T05:23:44;97437.75;;;15.60;100.00
21574;BME280;10948;48.706;9.258;2022-09-09T05:26:14;97436.38;;;15.95;100.00
21574;BME280;10948;48.706;9.258;2022-09-09T05:28:39;97440.28;;;16.40;100.00
21574;BME280;10948;48.706;9.258;2022-09-09T05:31:06;97444.88;;;17.04;100.00
21574;BME280;10948;48.706;9.258;2022-09-09T05:33:33;97437.66;;;17.06;99.27
21574;BME280;10948;48.706;9.258;2022-09-09T05:35:59;97442.63;;;16.53;100.00
21574;BME280;10948;48.706;9.258;2022-09-09T05:38:26;97433.53;;;16.95;100.00
21574;BME280;10948;48.706;9.258;2022-09-09T05:40:52;97439.22;;;18.37;93.31
21574;BME280;10948;48.706;9.258;2022-09-09T05:43:18;97444.28;;;19.18;85.09
21574;BME280;10948;48.706;9.258;2022-09-09T05:45:44;97442.25;;;19.73;80.23
21574;BME280;10948;48.706;9.258;2022-09-09T05:48:13;97436.56;;;19.34;82.20
21574;BME280;10948;48.706;9.258;2022-09-09T05:50:38;97448.91;;;20.10;81.32
21574;BME280;10948;48.706;9.258;2022-09-09T05:53:03;97449.75;;;20.11;76.67
21574;BME280;10948;48.706;9.258;2022-09-09T05:55:28;97453.44;;;18.71;82.22
21574;BME280;10948;48.706;9.258;2022-09-09T05:57:54;97458.72;;;18.17;90.35
21574;BME280;10948;48.706;9.258;2022-09-09T06:00:19;97447.47;;;17.52;97.95
21574;BME280;10948;48.706;9.258;2022-09-09T06:02:49;97454.47;;;17.70;99.75
21574;BME280;10948;48.706;9.258;2022-09-09T06:05:16;97450.19;;;17.69;99.78
21574;BME280;10948;48.706;9.258;2022-09-09T06:07:41;97452.28;;;17.56;100.00
21574;BME280;10948;48.706;9.258;2022-09-09T06:10:08;97452.91;;;17.77;100.00
21574;BME280;10948;48.706;9.258;2022-09-09T06:12:33;97453.59;;;17.79;100.00
21574;BME280;10948;48.706;9.258;2022-09-09T06:14:59;97456.81;;;17.73;100.00
21574;BME280;10948;48.706;9.258;2022-09-09T06:17:24;97460.31;;;17.64;100.00
21574;BME280;10948;48.706;9.258;2022-09-09T06:19:49;97447.53;;;17.79;98.86
21574;BME280;10948;48.706;9.258;2022-09-09T06:22:16;97448.16;;;17.90;98.60
21574;BME280;10948;48.706;9.258;2022-09-09T06:24:41;97448.59;;;17.86;98.00
21574;BME280;10948;48.706;9.258;2022-09-09T06:27:06;97448.56;;;17.95;95.34
21574;BME280;10948;48.706;9.258;2022-09-09T06:29:32;97446.34;;;18.00;95.61
21574;BME280;10948;48.706;9.258;2022-09-09T06:31:57;97448.69;;;18.30;94.86
21574;BME280;10948;48.706;9.258;2022-09-09T06:34:23;97457.09;;;18.43;93.84
21574;BME280;10948;48.706;9.258;2022-09-09T06:36:49;97451.78;;;17.05;100.00
21574;BME280;10948;48.706;9.258;2022-09-09T06:39:14;97454.88;;;18.66;91.34
21574;BME280;10948;48.706;9.258;2022-09-09T06:41:40;97448.94;;;18.81;90.35
21574;BME280;10948;48.706;9.258;2022-09-09T06:44:06;97449.50;;;18.58;92.74
21574;BME280;10948;48.706;9.258;2022-09-09T06:46:31;97459.72;;;18.43;95.58
21574;BME280;10948;48.706;9.258;2022-09-09T06:48:58;97454.88;;;18.83;93.94
21574;BME280;10948;48.706;9.258;2022-09-09T06:51:25;97454.72;;;18.67;93.84
21574;BME280;10948;48.706;9.258;2022-09-09T06:53:52;97454.66;;;19.29;92.55
21574;BME280;10948;48.706;9.258;2022-09-09T06:56:29;97450.19;;;19.30;92.03
21574;BME280;10948;48.706;9.258;2022-09-09T06:58:56;97450.88;;;18.79;95.42
21574;BME280;10948;48.706;9.258;2022-09-09T07:01:22;97458.38;;;19.70;86.29
21574;BME280;10948;48.706;9.258;2022-09-09T07:03:49;97457.66;;;20.52;81.69
21574;BME280;10948;48.706;9.258;2022-09-09T07:06:16;97440.78;;;22.60;71.79
21574;BME280;10948;48.706;9.258;2022-09-09T07:08:48;97448.38;;;22.71;70.42
21574;BME280;10948;48.706;9.258;2022-09-09T07:11:13;97445.09;;;23.73;64.01
21574;BME280;10948;48.706;9.258;2022-09-09T07:13:38;97446.91;;;23.95;61.16
21574;BME280;10948;48.706;9.258;2022-09-09T07:16:04;97453.56;;;23.17;64.03
21574;BME280;10948;48.706;9.258;2022-09-09T07:18:30;97451.75;;;22.87;66.74
21574;BME280;10948;48.706;9.258;2022-09-09T07:20:56;97454.16;;;22.74;68.02
21574;BME280;10948;48.706;9.258;2022-09-09T07:23:22;97449.47;;;22.07;68.84
21574;BME280;10948;48.706;9.258;2022-09-09T07:25:47;97464.66;;;22.90;68.83
21574;BME280;10948;48.706;9.258;2022-09-09T07:28:13;97450.84;;;22.95;67.05
21574;BME280;10948;48.706;9.258;2022-09-09T07:30:38;97446.19;;;23.27;64.54
21574;BME280;10948;48.706;9.258;2022-09-09T07:33:05;97445.84;;;21.92;68.35
21574;BME280;10948;48.706;9.258;2022-09-09T07:35:30;97438.16;;;23.35;64.67
21574;BME280;10948;48.706;9.258;2022-09-09T07:37:55;97444.31;;;24.59;61.09
21574;BME280;10948;48.706;9.258;2022-09-09T07:40:21;97447.63;;;24.18;61.45
21574;BME280;10948;48.706;9.258;2022-09-09T07:42:46;97443.69;;;29.05;52.40
21574;BME280;10948;48.706;9.258;2022-09-09T07:45:12;97453.38;;;27.06;52.41
21574;BME280;10948;48.706;9.258;2022-09-09T07:47:38;97447.88;;;25.65;55.50
21574;BME280;10948;48.706;9.258;2022-09-09T07:50:03;97456.75;;;28.05;52.88
21574;BME280;10948;48.706;9.258;2022-09-09T07:52:28;97456.69;;;32.36;44.19
21574;BME280;10948;48.706;9.258;2022-09-09T07:54:54;97463.78;;;35.24;37.86
21574;BME280;10948;48.706;9.258;2022-09-09T07:57:19;97476.72;;;31.24;42.64
21574;BME280;10948;48.706;9.258;2022-09-09T07:59:44;97480.91;;;31.50;43.55
21574;BME280;10948;48.706;9.258;2022-09-09T08:02:11;97475.75;;;36.54;35.87
21574;BME280;10948;48.706;9.258;2022-09-09T08:04:37;97483.00;;;40.17;31.58
21574;BME280;10948;48.706;9.258;2022-09-09T08:07:02;97479.69;;;42.89;29.27
21574;BME280;10948;48.706;9.258;2022-09-09T08:09:28;97476.97;;;31.63;40.47
21574;BME280;10948;48.706;9.258;2022-09-09T08:11:54;97487.38;;;29.43;43.91
21574;BME280;10948;48.706;9.258;2022-09-09T08:14:21;97490.31;;;25.66;51.80
21574;BME280;10948;48.706;9.258;2022-09-09T08:16:48;97476.94;;;28.14;48.80
21574;BME280;10948;48.706;9.258;2022-09-09T08:19:14;97478.66;;;34.41;40.78
21574;BME280;10948;48.706;9.258;2022-09-09T08:21:42;97475.25;;;41.65;30.44
21574;BME280;10948;48.706;9.258;2022-09-09T08:24:08;97481.56;;;43.07;28.60
21574;BME280;10948;48.706;9.258;2022-09-09T08:26:39;97490.06;;;43.19;27.53
21574;BME280;10948;48.706;9.258;2022-09-09T08:29:06;97483.31;;;35.79;36.51
21574;BME280;10948;48.706;9.258;2022-09-09T08:31:36;97483.19;;;38.95;32.95
21574;BME280;10948;48.706;9.258;2022-09-09T08:34:02;97483.78;;;38.72;31.35
21574;BME280;10948;48.706;9.258;2022-09-09T08:36:29;97480.94;;;36.61;32.47
21574;BME280;10948;48.706;9.258;2022-09-09T08:38:56;97491.22;;;38.27;31.21
21574;BME280;10948;48.706;9.258;2022-09-09T08:43:47;97490.66;;;40.20;29.40
21574;BME280;10948;48.706;9.258;2022-09-09T08:46:25;97479.78;;;42.25;29.12
21574;BME280;10948;48.706;9.258;2022-09-09T08:48:56;97475.69;;;37.77;32.08
21574;BME280;10948;48.706;9.258;2022-09-09T08:51:23;97486.78;;;33.07;37.13
21574;BME280;10948;48.706;9.258;2022-09-09T08:53:50;97482.34;;;33.01;39.50
21574;BME280;10948;48.706;9.258;2022-09-09T08:56:16;97484.81;;;33.42;39.92
21574;BME280;10948;48.706;9.258;2022-09-09T08:58:48;97480.03;;;29.32;44.50
21574;BME280;10948;48.706;9.258;2022-09-09T09:08:46;97484.09;;;32.56;40.26
21574;BME280;10948;48.706;9.258;2022-09-09T09:11:18;97475.25;;;31.80;39.48
21574;BME280;10948;48.706;9.258;2022-09-09T09:13:54;97476.88;;;33.52;39.02
21574;BME280;10948;48.706;9.258;2022-09-09T09:18:53;97473.00;;;34.09;36.75
21574;BME280;10948;48.706;9.258;2022-09-09T09:21:31;97484.22;;;34.72;37.17
21574;BME280;10948;48.706;9.258;2022-09-09T09:23:59;97474.09;;;33.47;37.87
21574;BME280;10948;48.706;9.258;2022-09-09T09:26:25;97481.94;;;34.10;36.81
21574;BME280;10948;48.706;9.258;2022-09-09T09:28:55;97475.28;;;32.15;39.03
21574;BME280;10948;48.706;9.258;2022-09-09T09:31:21;97484.78;;;29.67;42.98
21574;BME280;10948;48.706;9.258;2022-09-09T09:33:52;97507.78;;;29.81;42.46
21574;BME280;10948;48.706;9.258;2022-09-09T09:36:18;97505.19;;;27.91;41.17
21574;BME280;10948;48.706;9.258;2022-09-09T09:38:53;97492.38;;;27.99;39.20
21574;BME280;10948;48.706;9.258;2022-09-09T09:43:55;97475.78;;;32.35;36.69
21574;BME280;10948;48.706;9.258;2022-09-09T09:46:21;97486.47;;;34.75;33.05
21574;BME280;10948;48.706;9.258;2022-09-09T09:49:01;97474.22;;;34.35;33.71
21574;BME280;10948;48.706;9.258;2022-09-09T09:51:27;97473.84;;;35.07;32.67
21574;BME280;10948;48.706;9.258;2022-09-09T09:53:53;97458.72;;;36.17;30.99
21574;BME280;10948;48.706;9.258;2022-09-09T09:56:26;97466.25;;;36.52;31.55
21574;BME280;10948;48.706;9.258;2022-09-09T09:58:53;97463.63;;;34.88;31.63
21574;BME280;10948;48.706;9.258;2022-09-09T10:03:51;97441.94;;;37.43;30.66
21574;BME280;10948;48.706;9.258;2022-09-09T10:06:16;97444.16;;;37.76;30.45
21574;BME280;10948;48.706;9.258;2022-09-09T10:08:45;97442.78;;;35.94;31.55
21574;BME280;10948;48.706;9.258;2022-09-09T10:16:08;97439.72;;;34.80;33.84
21574;BME280;10948;48.706;9.258;2022-09-09T10:18:41;97442.00;;;31.05;37.35
21574;BME280;10948;48.706;9.258;2022-09-09T10:37:20;97420.25;;;33.57;36.89
21574;BME280;10948;48.706;9.258;2022-09-09T10:39:50;97413.53;;;32.48;37.19
21574;BME280;10948;48.706;9.258;2022-09-09T10:42:24;97406.66;;;34.56;35.15
21574;BME280;10948;48.706;9.258;2022-09-09T10:45:00;97415.50;;;34.14;35.33
21574;BME280;10948;48.706;9.258;2022-09-09T10:47:39;97402.16;;;29.14;40.44
21574;BME280;10948;48.706;9.258;2022-09-09T10:52:39;97412.56;;;34.96;35.34
21574;BME280;10948;48.706;9.258;2022-09-09T10:55:10;97406.44;;;32.30;38.68
21574;BME280;10948;48.706;9.258;2022-09-09T10:57:39;97403.28;;;31.24;40.25
21574;BME280;10948;48.706;9.258;2022-09-09T11:00:06;97414.13;;;30.34;41.18
21574;BME280;10948;48.706;9.258;2022-09-09T11:02:39;97396.41;;;36.32;33.47
21574;BME280;10948;48.706;9.258;2022-09-09T11:05:14;97399.50;;;32.74;34.65
21574;BME280;10948;48.706;9.258;2022-09-09T11:07:41;97404.63;;;32.47;33.77
21574;BME280;10948;48.706;9.258;2022-09-09T11:10:21;97387.97;;;29.87;36.87
21574;BME280;10948;48.706;9.258;2022-09-09T11:12:49;97396.91;;;29.01;38.72
21574;BME280;10948;48.706;9.258;2022-09-09T11:15:31;97406.44;;;28.33;40.47
21574;BME280;10948;48.706;9.258;2022-09-09T11:18:01;97416.03;;;27.38;41.19
21574;BME280;10948;48.706;9.258;2022-09-09T11:20:26;97401.22;;;27.49;41.52
21574;BME280;10948;48.706;9.258;2022-09-09T11:36:05;97470.53;;;24.77;57.94
21574;BME280;10948;48.706;9.258;2022-09-09T11:38:40;97473.31;;;24.40;62.61
21574;BME280;10948;48.706;9.258;2022-09-09T11:41:10;97469.84;;;23.73;62.24
21574;BME280;10948;48.706;9.258;2022-09-09T11:43:42;97469.63;;;24.41;61.72
21574;BME280;10948;48.706;9.258;2022-09-09T11:46:09;97456.72;;;24.09;60.40
21574;BME280;10948;48.706;9.258;2022-09-09T11:48:36;97448.69;;;27.14;53.73
21574;BME280;10948;48.706;9.258;2022-09-09T11:51:03;97443.56;;;25.91;54.35
21574;BME280;10948;48.706;9.258;2022-09-09T11:53:30;97444.56;;;25.35;54.85
21574;BME280;10948;48.706;9.258;2022-09-09T11:56:02;97449.19;;;26.03;52.17
21574;BME280;10948;48.706;9.258;2022-09-09T11:58:28;97446.13;;;26.40;51.89
21574;BME280;10948;48.706;9.258;2022-09-09T12:00:57;97447.44;;;26.57;50.28
21574;BME280;10948;48.706;9.258;2022-09-09T12:05:57;97453.28;;;25.99;50.85
21574;BME280;10948;48.706;9.258;2022-09-09T12:08:27;97445.16;;;25.16;51.24
21574;BME280;10948;48.706;9.258;2022-09-09T12:10:53;97447.94;;;25.99;48.94
21574;BME280;10948;48.706;9.258;2022-09-09T12:13:20;97451.25;;;24.75;51.02
21574;BME280;10948;48.706;9.258;2022-09-09T12:15:51;97451.22;;;26.35;50.08
21574;BME280;10948;48.706;9.258;2022-09-09T12:18:37;97456.56;;;26.01;49.35
21574;BME280;10948;48.706;9.258;2022-09-09T12:24:30;97445.94;;;29.94;42.75
21574;BME280;10948;48.706;9.258;2022-09-09T12:29:12;97441.81;;;26.86;44.93
21574;BME280;10948;48.706;9.258;2022-09-09T12:31:42;97426.44;;;28.88;41.74
21574;BME280;10948;48.706;9.258;2022-09-09T12:34:54;97421.91;;;28.82;41.70
21574;BME280;10948;48.706;9.258;2022-09-09T12:36:57;97412.41;;;28.42;43.19
21574;BME280;10948;48.706;9.258;2022-09-09T12:39:28;97412.94;;;28.63;42.12
21574;BME280;10948;48.706;9.258;2022-09-09T12:41:55;97412.38;;;28.55;43.43
21574;BME280;10948;48.706;9.258;2022-09-09T12:44:21;97414.09;;;28.23;42.22
21574;BME280;10948;48.706;9.258;2022-09-09T12:46:47;97416.28;;;28.59;42.58
21574;BME280;10948;48.706;9.258;2022-09-09T12:49:29;97410.56;;;29.24;41.81
21574;BME280;10948;48.706;9.258;2022-09-09T12:51:59;97417.00;;;26.45;45.59
21574;BME280;10948;48.706;9.258;2022-09-09T12:54:25;97411.03;;;26.02;46.49
21574;BME280;10948;48.706;9.258;2022-09-09T12:56:51;97418.16;;;26.29;47.45
21574;BME280;10948;48.706;9.258;2022-09-09T12:59:24;97414.09;;;26.40;47.47
21574;BME280;10948;48.706;9.258;2022-09-09T13:01:56;97415.56;;;25.26;48.94
21574;BME280;10948;48.706;9.258;2022-09-09T13:04:22;97416.06;;;24.79;49.69
21574;BME280;10948;48.706;9.258;2022-09-09T13:06:47;97415.63;;;25.60;48.24
21574;BME280;10948;48.706;9.258;2022-09-09T13:09:12;97400.31;;;24.99;48.37
21574;BME280;10948;48.706;9.258;2022-09-09T13:14:03;97401.66;;;26.60;47.29
21574;BME280;10948;48.706;9.258;2022-09-09T13:16:29;97409.00;;;26.11;46.90
21574;BME280;10948;48.706;9.258;2022-09-09T13:18:56;97396.38;;;26.26;46.89
21574;BME280;10948;48.706;9.258;2022-09-09T13:21:35;97400.88;;;26.25;47.38
21574;BME280;10948;48.706;9.258;2022-09-09T13:24:00;97404.84;;;26.02;46.73
21574;BME280;10948;48.706;9.258;2022-09-09T13:26:28;97396.91;;;26.08;46.27
21574;BME280;10948;48.706;9.258;2022-09-09T13:28:54;97394.75;;;25.70;45.57
21574;BME280;10948;48.706;9.258;2022-09-09T13:31:24;97396.13;;;26.21;45.28
21574;BME280;10948;48.706;9.258;2022-09-09T13:33:52;97392.81;;;27.39;44.20
21574;BME280;10948;48.706;9.258;2022-09-09T13:36:26;97386.34;;;26.94;44.89
21574;BME280;10948;48.706;9.258;2022-09-09T13:41:24;97387.22;;;27.47;44.43
21574;BME280;10948;48.706;9.258;2022-09-09T13:43:50;97384.69;;;26.87;45.62
21574;BME280;10948;48.706;9.258;2022-09-09T13:48:58;97384.31;;;26.43;45.98
21574;BME280;10948;48.706;9.258;2022-09-09T13:51:34;97377.41;;;26.55;46.72
21574;BME280;10948;48.706;9.258;2022-09-09T13:54:01;97377.34;;;25.40;47.96
21574;BME280;10948;48.706;9.258;2022-09-09T13:56:27;97386.97;;;25.41;49.07
21574;BME280;10948;48.706;9.258;2022-09-09T13:58:52;97383.13;;;26.05;48.00
21574;BME280;10948;48.706;9.258;2022-09-09T14:01:17;97375.34;;;26.10;48.30
21574;BME280;10948;48.706;9.258;2022-09-09T14:03:42;97375.91;;;25.99;46.76
21574;BME280;10948;48.706;9.258;2022-09-09T14:06:08;97378.41;;;26.07;47.65
21574;BME280;10948;48.706;9.258;2022-09-09T14:08:34;97379.25;;;25.80;47.01
21574;BME280;10948;48.706;9.258;2022-09-09T14:11:05;97374.28;;;25.77;46.65
21574;BME280;10948;48.706;9.258;2022-09-09T14:13:31;97367.53;;;25.47;46.72
21574;BME280;10948;48.706;9.258;2022-09-09T14:15:57;97377.00;;;25.49;47.34
21574;BME280;10948;48.706;9.258;2022-09-09T14:18:22;97377.56;;;26.47;46.35
21574;BME280;10948;48.706;9.258;2022-09-09T14:20:48;97369.22;;;25.82;47.77
21574;BME280;10948;48.706;9.258;2022-09-09T14:23:13;97372.38;;;25.37;45.82
21574;BME280;10948;48.706;9.258;2022-09-09T14:25:41;97366.16;;;25.30;46.93
21574;BME280;10948;48.706;9.258;2022-09-09T14:28:07;97371.09;;;25.54;46.18
21574;BME280;10948;48.706;9.258;2022-09-09T14:30:33;97368.84;;;25.30;46.69
21574;BME280;10948;48.706;9.258;2022-09-09T14:32:58;97371.28;;;25.25;46.69
21574;BME280;10948;48.706;9.258;2022-09-09T14:35:23;97363.28;;;25.25;46.56
21574;BME280;10948;48.706;9.258;2022-09-09T14:37:49;97364.91;;;25.53;45.92
21574;BME280;10948;48.706;9.258;2022-09-09T14:40:14;97368.84;;;25.57;46.46
21574;BME280;10948;48.706;9.258;2022-09-09T14:42:40;97364.53;;;24.87;45.14
21574;BME280;10948;48.706;9.258;2022-09-09T14:45:06;97361.88;;;25.08;44.60
21574;BME280;10948;48.706;9.258;2022-09-09T14:47:31;97364.78;;;25.13;44.40
21574;BME280;10948;48.706;9.258;2022-09-09T14:49:57;97370.72;;;25.36;44.64
21574;BME280;10948;48.706;9.258;2022-09-09T14:52:22;97370.47;;;25.10;44.66
21574;BME280;10948;48.706;9.258;2022-09-09T14:54:47;97364.09;;;25.25;44.82
21574;BME280;10948;48.706;9.258;2022-09-09T14:57:12;97360.16;;;25.00;44.99
21574;BME280;10948;48.706;9.258;2022-09-09T14:59:38;97361.88;;;25.08;44.84